• Join FlightAware (Why Join?)
  • Login
  • US Flag 
07:39AM EST


 

Airport Tracker/Info


-or-


 

Live Flight TrackerFlight Track Log ✈ EJA922 ✈ 16-Mar-2014 ✈ KJAX - KGPT

Flight Track Log - Related Links

Times and Time Zones

All times are in EDT time to prevent confusion due to time zone crossing. See the EJA922 flight status page for this flight to view local times or setup timezone preferences in your user account.

Time Position Orientation Groundspeed Altitude Reporting Facility
EDT Latitude Longitude Course Direction KTS MPH feet Rate Location/Type
11:32AM 30.5453 -81.7397 North 279 321 5,200  Level Jacksonville Center
11:33AM 30.6244 -81.7289 North 295 339 9,500 3,360 Climbing Jacksonville Center
11:34AM 30.7333 -81.7736 341° North 318 366 13,100 2,580 Climbing Jacksonville Center
11:35AM 30.8092 -81.8428 322° Northwest 348 400 15,500 2,400 Climbing Jacksonville Center
11:36AM 30.8933 -81.9144 324° Northwest 358 412 18,000 2,340 Climbing Jacksonville Center
11:37AM 30.9836 -81.9767 329° Northwest 364 419 20,200 1,800 Climbing Jacksonville Center
11:38AM 31.0633 -82.0533 321° Northwest 375 432 21,700 1,380 Climbing Jacksonville Center
11:39AM 31.1494 -82.1328 322° Northwest 380 437 23,000 1,080 Climbing Jacksonville Center
11:40AM 31.2378 -82.2219 319° Northwest 398 458 23,900 1,200 Climbing Jacksonville Center
11:41AM 31.3239 -82.3039 321° Northwest 403 464 25,500 1,500 Climbing Jacksonville Center
11:42AM 31.4075 -82.3814 322° Northwest 403 464 27,000 1,320 Climbing Jacksonville Center
11:43AM 31.4914 -82.4639 320° Northwest 397 457 28,200 1,140 Climbing Jacksonville Center
11:44AM 31.5731 -82.5464 319° Northwest 397 457 29,300 960 Climbing Jacksonville Center
11:45AM 31.6589 -82.6267 321° Northwest 392 451 30,200 900 Climbing Jacksonville Center
11:47AM 31.8006 -82.7658 320° Northwest 410 472 31,800 900 Climbing Atlanta Center
11:48AM 31.8911 -82.8550 320° Northwest 416 479 32,700 780 Climbing Atlanta Center
11:49AM 31.9775 -82.9394 320° Northwest 411 473 33,400 600 Climbing Atlanta Center
11:50AM 32.0681 -83.0292 320° Northwest 411 473 34,000 300 Climbing Atlanta Center
11:51AM 32.1628 -83.1211 321° Northwest 421 484 34,000  Level Atlanta Center
11:52AM 32.2511 -83.2258 315° West 438 504 34,000  Level Atlanta Center
11:53AM 32.2728 -83.3683 280° West 421 484 34,000 60 Level Atlanta Center
11:54AM 32.2714 -83.5156 269° West 427 491 34,200 600 Climbing Atlanta Center
11:55AM 32.2678 -83.6753 269° West 434 499 35,300 1,140 Climbing Atlanta Center
11:56AM 32.2683 -83.8153 270° West 444 511 36,500 1,680 Climbing Atlanta Center
11:57AM 32.2642 -83.9481 268° West 434 499 38,700 2,040 Climbing Atlanta Center
11:58AM 32.2664 -84.0733 271° West 406 467 40,600 1,320 Climbing Atlanta Center
11:59AM 32.2619 -84.1986 268° West 389 448 41,400 720 Climbing Atlanta Center
12:00PM 32.2619 -84.3261 270° West 389 448 42,100 720 Climbing Atlanta Center
12:01PM 32.2614 -84.4564 270° West 389 448 42,900 420 Climbing Atlanta Center
12:02PM 32.2547 -84.5842 267° West 389 448 43,000  Climbing Atlanta Center
12:03PM 32.2186 -84.7139 252° West 402 463 43,000  Level Atlanta Center
12:04PM 32.1822 -84.8464 252° West 414 476 43,000  Level Atlanta Center
12:05PM 32.1458 -84.9858 253° West 428 493 43,000  Level Atlanta Center
12:06PM 32.1133 -85.1153 254° West 433 498 43,000  Level Atlanta Center
12:07PM 32.0767 -85.2447 252° West 427 491 43,000  Level Atlanta Center
12:08PM 32.0400 -85.3814 252° West 427 491 43,000  Level Atlanta Center
12:09PM 32.0050 -85.5158 253° West 427 491 43,000  Level Atlanta Center
12:10PM 31.9700 -85.6497 253° West 427 491 43,000  Level Atlanta Center
12:11PM 31.9306 -85.7861 251° West 436 502 43,000  Level Atlanta Center
12:12PM 31.8994 -85.9175 254° West 436 502 43,000  Level Atlanta Center
12:13PM 31.8700 -86.0564 256° West 436 502 43,000  Level Atlanta Center
12:14PM 31.8514 -86.1781 260° West 431 496 43,000  Level Atlanta Center
12:15PM 31.8361 -86.3197 263° West 431 496 43,000  Level Atlanta Center
12:16PM 31.8189 -86.4586 262° West 431 496 43,000  Level Atlanta Center
12:17PM 31.8017 -86.5972 262° West 431 496 43,000 -300 Level Atlanta Center
12:18PM 31.7819 -86.7361 261° West 431 496 42,400 -1,140 Descending Atlanta Center
12:19PM 31.7664 -86.8747 263° West 431 496 40,800 -1,680 Descending Atlanta Center
12:20PM 31.7486 -87.0086 261° West 426 490 39,100 -1,920 Descending Atlanta Center
12:21PM 31.7306 -87.1422 261° West 426 490 37,000 -2,220 Descending Atlanta Center
12:22PM 31.7125 -87.2783 261° West 427 491 34,700 -2,400 Descending Atlanta Center
12:23PM 31.6856 -87.4261 258° West 427 491 32,200 -2,460 Descending Atlanta Center
12:24PM 31.5633 -87.5847 228° Southwest 417 480 28,500 -1,620 Descending Houston Center
12:25PM 31.4881 -87.6825 228° Southwest 410 472 28,000 -300 Descending Houston Center
12:26PM 31.4131 -87.7819 229° Southwest 409 471 28,000 -480 Level Houston Center
12:27PM 31.3344 -87.8844 228° Southwest 419 482 27,000 -1,020 Descending Houston Center
12:28PM 31.2567 -87.9867 228° Southwest 421 484 25,900 -1,200 Descending Houston Center
12:29PM 31.1733 -88.0944 228° Southwest 416 479 24,600 -960 Descending Houston Center
12:30PM 31.0892 -88.2042 228° Southwest 413 475 24,000 -660 Descending Houston Center
12:31PM 31.0200 -88.2886 226° Southwest 409 471 23,300 -1,140 Descending Houston Center
12:33PM 30.9489 -88.3853 229° Southwest 389 448 21,700 -1,740 Descending Houston Center
12:34PM 30.8642 -88.4936 228° Southwest 380 437 19,800 -2,040 Descending Houston Center
12:35PM 30.7953 -88.5819 228° Southwest 374 430 17,600 -2,040 Descending Houston Center
12:36PM 30.7289 -88.6664 228° Southwest 358 412 15,600 -1,980 Descending Houston Center
12:37PM 30.6961 -88.7761 251° West 360 414 13,600 -2,040 Descending Houston Center
12:38PM 30.6664 -88.8789 251° West 342 394 11,500 -1,920 Descending Houston Center
12:39PM 30.6342 -88.9808 250° West 295 339 9,700 -1,680 Descending Houston Center
12:40PM 30.6072 -89.0544 247° West 259 298 8,100 -1,620 Descending Houston Center
12:41PM 30.6089 -89.1308 271° West 243 280 6,400 -1,500 Descending Houston Center
12:44PM 30.4900 -89.1669 165° South 217 250 1,900 -1,260 Descending Houston Center
12:45PM 30.4556 -89.1289 136° Southeast 187 215 1,200 -660 Descending Houston Center
12:46PM 30.4197 -89.0889 136° Southeast 172 198 600 -600 Descending Houston Center
12:48PM 30.4000 -89.0667 134° Southeast  Level FlightAware Approximate
12:55PM 30.4073 -89.0701 134° Southeast  Level Estimated